Terminal Aerodrome Forecast
Issued by NWS St Louis, MO

Home | Current Version | Previous Version | Text Only | Print | Product List | Glossary On
Versions: 1 2 3 4 5 6 7 8 9 10 11 12 13 14 15 16 17 18 19 20 21 22 23 24
000
FTUS43 KLSX 251700
TAFCOU
TAF
KCOU 251731Z 2518/2618 32005KT P6SM FEW040 BKN250
     FM252200 02010KT 5SM -SHRA VCTS SCT040CB BKN080
     FM260300 01012KT 4SM -RA BR SCT007 OVC015
     FM260900 35012KT P6SM SCT050 OVC120=

USA.gov is the U.S. government's official web portal to all federal, state and local government web resources and services.